Time;durP1;ratioP1;P1;durP2;ratioP2;P2;SDS_P1;SDS_P2;PMS_P1;PMS_P2;Temp;Humidity;BMP_temperature;BMP_pressure;BME280_temperature;BME280_humidity;BME280_pressure;Samples;Min_cycle;Max_cycle;Signal;HPM_P1;HPM_P2
2023/03/19 00:02:19;;;;;;;36.00;18.40;;;;;;;;;;6192098;23;20446;-92
2023/03/19 00:04:45;;;;;;;37.88;19.83;;;;;;;;;;6192692;23;20105;-92
2023/03/19 00:07:12;;;;;;;35.15;19.23;;;;;;;;;;6193946;23;20123;-93
2023/03/19 00:09:38;;;;;;;40.03;19.08;;;;;;;;;;6218483;23;20197;-93
2023/03/19 00:12:05;;;;;;;37.85;20.30;;;;;;;;;;6219194;23;20012;-93
2023/03/19 00:14:31;;;;;;;36.45;19.90;;;;;;;;;;6192038;23;20015;-94
2023/03/19 00:17:00;;;;;;;33.53;19.33;;;;;;;;;;6218865;23;20324;-92
2023/03/19 00:19:27;;;;;;;37.97;19.40;;;;;;;;;;6218105;23;20008;-92
2023/03/19 00:21:57;;;;;;;34.33;18.17;;;;;;;;;;6217935;23;20007;-91
2023/03/19 00:24:23;;;;;;;34.17;18.35;;;;;;;;;;6193340;23;20057;-92
2023/03/19 00:26:50;;;;;;;43.88;20.92;;;;;;;;;;6218214;23;20011;-92
2023/03/19 00:29:16;;;;;;;37.72;19.05;;;;;;;;;;6245268;23;20020;-92
2023/03/19 00:31:42;;;;;;;40.42;19.90;;;;;;;;;;6193053;23;20438;-92
2023/03/19 00:34:10;;;;;;;38.10;19.50;;;;;;;;;;6192754;22;20031;-92
2023/03/19 00:36:36;;;;;;;39.60;20.17;;;;;;;;;;6217195;23;20066;-92
2023/03/19 00:39:03;;;;;;;36.40;20.27;;;;;;;;;;6217870;23;20058;-93
2023/03/19 00:41:29;;;;;;;36.55;20.15;;;;;;;;;;6219574;23;20016;-93
2023/03/19 00:43:56;;;;;;;45.58;20.33;;;;;;;;;;6215534;23;20165;-91
2023/03/19 00:46:23;;;;;;;43.17;20.67;;;;;;;;;;6215598;23;20366;-91
2023/03/19 00:48:52;;;;;;;41.13;21.02;;;;;;;;;;6216347;23;20592;-92
2023/03/19 00:51:19;;;;;;;38.10;19.42;;;;;;;;;;6216791;23;20038;-92
2023/03/19 00:53:45;;;;;;;36.13;19.40;;;;;;;;;;6217602;23;20385;-93
2023/03/19 00:56:13;;;;;;;37.63;20.98;;;;;;;;;;6192552;23;20012;-91
2023/03/19 00:58:42;;;;;;;36.88;19.80;;;;;;;;;;6214355;23;20012;-87
2023/03/19 01:01:09;;;;;;;40.35;19.67;;;;;;;;;;6191532;23;20016;-92
2023/03/19 01:03:36;;;;;;;40.63;21.08;;;;;;;;;;6218395;23;20435;-93
2023/03/19 01:06:02;;;;;;;38.88;19.95;;;;;;;;;;6216993;23;20004;-92
2023/03/19 01:08:29;;;;;;;38.42;20.10;;;;;;;;;;6193956;23;20004;-93
2023/03/19 01:10:57;;;;;;;45.05;20.45;;;;;;;;;;6220130;23;20418;-94
2023/03/19 01:13:23;;;;;;;42.35;21.58;;;;;;;;;;6219828;23;20008;-93
2023/03/19 01:15:52;;;;;;;47.45;24.27;;;;;;;;;;6195085;23;20016;-94
2023/03/19 01:18:18;;;;;;;45.95;24.20;;;;;;;;;;6197255;23;20012;-92
2023/03/19 01:20:46;;;;;;;54.10;26.08;;;;;;;;;;6220120;23;20019;-92
2023/03/19 01:23:14;;;;;;;47.10;25.13;;;;;;;;;;6221390;23;20015;-92
2023/03/19 01:25:40;;;;;;;45.40;21.10;;;;;;;;;;6219756;23;20102;-92
2023/03/19 01:28:06;;;;;;;39.50;20.23;;;;;;;;;;6220304;23;20008;-92
2023/03/19 01:30:33;;;;;;;41.42;20.20;;;;;;;;;;6245969;23;20114;-92
2023/03/19 01:32:59;;;;;;;37.97;19.27;;;;;;;;;;6221395;22;20111;-93
2023/03/19 01:35:25;;;;;;;39.95;20.75;;;;;;;;;;6195188;23;20036;-93
2023/03/19 01:37:51;;;;;;;43.50;21.98;;;;;;;;;;6194685;23;20009;-93
2023/03/19 01:40:17;;;;;;;43.30;22.23;;;;;;;;;;6194661;23;20366;-92
2023/03/19 01:42:57;;;;;;;39.55;20.15;;;;;;;;;;6193512;23;20039;-93
2023/03/19 01:45:42;;;;;;;35.38;19.23;;;;;;;;;;6219957;23;20066;-95
2023/03/19 01:48:16;;;;;;;36.17;18.25;;;;;;;;;;6219354;23;20497;-93
2023/03/19 01:50:44;;;;;;;28.45;16.13;;;;;;;;;;6217197;23;20004;-93
2023/03/19 01:53:12;;;;;;;31.30;16.23;;;;;;;;;;6220029;23;20031;-93
2023/03/19 01:55:39;;;;;;;30.70;14.98;;;;;;;;;;6219266;23;20391;-93
2023/03/19 01:58:06;;;;;;;28.95;15.13;;;;;;;;;;6219515;23;20012;-93
2023/03/19 02:00:33;;;;;;;25.98;14.82;;;;;;;;;;6216020;23;20492;-91
2023/03/19 02:03:00;;;;;;;32.03;15.48;;;;;;;;;;6192902;23;20008;-92
2023/03/19 02:05:28;;;;;;;24.58;14.23;;;;;;;;;;6216208;23;20009;-92
2023/03/19 02:07:55;;;;;;;23.60;13.23;;;;;;;;;;6193829;23;20011;-93
2023/03/19 02:10:22;;;;;;;21.65;13.10;;;;;;;;;;6218563;23;20047;-93
2023/03/19 02:12:48;;;;;;;23.10;12.23;;;;;;;;;;6217007;23;20506;-92
2023/03/19 02:15:15;;;;;;;16.48;10.75;;;;;;;;;;6219151;23;20122;-92
2023/03/19 02:17:41;;;;;;;21.40;11.73;;;;;;;;;;6217805;23;20563;-92
2023/03/19 02:20:23;;;;;;;20.58;11.30;;;;;;;;;;6194768;23;20011;-93
2023/03/19 02:23:04;;;;;;;24.48;11.30;;;;;;;;;;6219581;23;20018;-91
2023/03/19 02:25:45;;;;;;;22.08;12.32;;;;;;;;;;6218670;23;20020;-92
2023/03/19 02:28:11;;;;;;;23.83;12.27;;;;;;;;;;6220318;23;20004;-93
2023/03/19 02:30:37;;;;;;;21.33;11.95;;;;;;;;;;6220175;23;20018;-92
2023/03/19 02:33:04;;;;;;;21.45;12.80;;;;;;;;;;6219032;22;20016;-93
2023/03/19 02:35:37;;;;;;;22.48;11.30;;;;;;;;;;6220580;23;20004;-94
2023/03/19 02:38:06;;;;;;;20.13;11.70;;;;;;;;;;6196571;23;20177;-93
2023/03/19 02:40:36;;;;;;;19.10;10.95;;;;;;;;;;6221403;23;20004;-92
2023/03/19 02:43:02;;;;;;;21.10;11.27;;;;;;;;;;6219694;23;20611;-91
2023/03/19 02:45:29;;;;;;;22.65;13.30;;;;;;;;;;6192851;23;20489;-92
2023/03/19 02:47:55;;;;;;;28.08;14.90;;;;;;;;;;6194568;23;20035;-93
2023/03/19 02:50:21;;;;;;;30.70;17.15;;;;;;;;;;6195224;23;20637;-93
2023/03/19 02:52:52;;;;;;;28.77;15.45;;;;;;;;;;6218950;23;20215;-93
2023/03/19 02:55:20;;;;;;;33.80;18.17;;;;;;;;;;6197090;23;20015;-92
2023/03/19 02:57:46;;;;;;;35.38;20.00;;;;;;;;;;6221532;23;20008;-93
2023/03/19 03:00:15;;;;;;;27.90;16.38;;;;;;;;;;6218532;23;20081;-92
2023/03/19 03:02:42;;;;;;;24.30;14.32;;;;;;;;;;6195685;23;20012;-93
2023/03/19 03:05:08;;;;;;;24.95;14.13;;;;;;;;;;6221769;23;20004;-92
2023/03/19 03:07:36;;;;;;;24.13;14.55;;;;;;;;;;6221235;23;20004;-93
2023/03/19 03:10:02;;;;;;;23.50;13.95;;;;;;;;;;6199264;23;20014;-94
2023/03/19 03:12:35;;;;;;;26.05;15.32;;;;;;;;;;6225003;23;20012;-95
2023/03/19 03:15:02;;;;;;;27.13;14.68;;;;;;;;;;6200836;23;20016;-94
2023/03/19 03:17:29;;;;;;;20.45;11.52;;;;;;;;;;6224062;23;20004;-91
2023/03/19 03:19:55;;;;;;;25.88;11.50;;;;;;;;;;6202894;23;20033;-91
2023/03/19 03:22:22;;;;;;;15.98;9.75;;;;;;;;;;6202077;23;20012;-91
2023/03/19 03:24:48;;;;;;;19.17;9.38;;;;;;;;;;6201779;23;20084;-91
2023/03/19 03:27:15;;;;;;;19.00;9.43;;;;;;;;;;6202454;23;20496;-91
2023/03/19 03:29:42;;;;;;;14.90;8.02;;;;;;;;;;6201913;23;20014;-91
2023/03/19 03:32:11;;;;;;;16.98;8.45;;;;;;;;;;6203505;23;20004;-92
2023/03/19 03:34:38;;;;;;;14.48;7.50;;;;;;;;;;6228762;22;20178;-93
2023/03/19 03:37:04;;;;;;;13.48;8.10;;;;;;;;;;6203098;23;20070;-93
2023/03/19 03:39:30;;;;;;;14.85;8.15;;;;;;;;;;6226722;23;20063;-92
2023/03/19 03:41:56;;;;;;;16.95;7.88;;;;;;;;;;6225528;23;20446;-93
2023/03/19 03:44:22;;;;;;;13.90;7.25;;;;;;;;;;6221825;23;20426;-93
2023/03/19 03:46:48;;;;;;;16.33;7.45;;;;;;;;;;6199420;23;20303;-92
2023/03/19 03:49:15;;;;;;;20.35;7.10;;;;;;;;;;6222335;23;20019;-92
2023/03/19 03:51:41;;;;;;;12.65;6.82;;;;;;;;;;6221987;23;20013;-92
2023/03/19 03:54:07;;;;;;;17.27;7.68;;;;;;;;;;6196919;23;20077;-93
2023/03/19 03:56:34;;;;;;;13.10;7.18;;;;;;;;;;6196906;23;20023;-93
2023/03/19 03:59:02;;;;;;;13.10;7.30;;;;;;;;;;6221956;23;20129;-93
2023/03/19 04:01:29;;;;;;;11.63;6.53;;;;;;;;;;6250152;22;20047;-93
2023/03/19 04:03:56;;;;;;;11.27;6.35;;;;;;;;;;6196878;23;20027;-92
2023/03/19 04:06:23;;;;;;;13.30;6.78;;;;;;;;;;6221017;23;20004;-93
2023/03/19 04:08:50;;;;;;;10.40;5.60;;;;;;;;;;6220558;23;20008;-92
2023/03/19 04:11:18;;;;;;;9.60;5.95;;;;;;;;;;6220523;23;20012;-93
2023/03/19 04:13:46;;;;;;;11.75;6.55;;;;;;;;;;6218868;23;20004;-95
2023/03/19 04:16:14;;;;;;;11.82;6.78;;;;;;;;;;6221274;23;20011;-94
2023/03/19 04:18:40;;;;;;;9.52;6.10;;;;;;;;;;6219584;23;20099;-94
2023/03/19 04:21:10;;;;;;;12.80;6.20;;;;;;;;;;6222418;23;20031;-93
2023/03/19 04:23:36;;;;;;;11.95;5.85;;;;;;;;;;6195250;23;20012;-93
2023/03/19 04:26:03;;;;;;;11.30;6.07;;;;;;;;;;6195889;23;20027;-93
2023/03/19 04:28:30;;;;;;;9.85;6.18;;;;;;;;;;6218732;23;20008;-92
2023/03/19 04:31:03;;;;;;;16.00;6.13;;;;;;;;;;6220038;23;20027;-93
2023/03/19 04:33:32;;;;;;;13.27;6.00;;;;;;;;;;6221577;22;20095;-93
2023/03/19 04:35:59;;;;;;;11.80;5.85;;;;;;;;;;6195112;23;20016;-94
2023/03/19 04:38:26;;;;;;;11.98;6.82;;;;;;;;;;6220092;23;20529;-95
2023/03/19 04:40:52;;;;;;;10.38;6.45;;;;;;;;;;6220060;23;20014;-96
2023/03/19 04:43:19;;;;;;;10.05;6.05;;;;;;;;;;6193730;23;20019;-94
2023/03/19 04:45:45;;;;;;;15.25;5.90;;;;;;;;;;6218981;23;20427;-94
2023/03/19 04:48:11;;;;;;;12.10;6.45;;;;;;;;;;6196095;23;20469;-93
2023/03/19 04:50:40;;;;;;;9.10;5.82;;;;;;;;;;6196509;23;20013;-93
2023/03/19 04:53:07;;;;;;;9.80;5.22;;;;;;;;;;6196742;23;20065;-93
2023/03/19 04:55:34;;;;;;;10.48;5.63;;;;;;;;;;6220717;23;20012;-93
2023/03/19 04:58:00;;;;;;;9.57;5.47;;;;;;;;;;6195766;23;20011;-93
2023/03/19 05:00:27;;;;;;;13.13;5.97;;;;;;;;;;6217987;23;20008;-92
2023/03/19 05:02:53;;;;;;;8.65;5.90;;;;;;;;;;6193530;23;20102;-92
2023/03/19 05:05:19;;;;;;;11.20;5.32;;;;;;;;;;6218456;23;20004;-92
2023/03/19 05:07:46;;;;;;;13.45;6.20;;;;;;;;;;6192276;23;20334;-92
2023/03/19 05:10:13;;;;;;;9.43;5.95;;;;;;;;;;6219220;23;20011;-92
2023/03/19 05:12:42;;;;;;;10.82;5.88;;;;;;;;;;6191497;23;20008;-92
2023/03/19 05:15:08;;;;;;;7.93;5.70;;;;;;;;;;6193885;23;20201;-93
2023/03/19 05:17:36;;;;;;;11.73;6.35;;;;;;;;;;6219027;23;20067;-93
2023/03/19 05:20:03;;;;;;;9.50;5.78;;;;;;;;;;6193779;23;20016;-92
2023/03/19 05:22:30;;;;;;;14.00;5.65;;;;;;;;;;6218850;23;20004;-95
2023/03/19 05:24:59;;;;;;;9.23;5.53;;;;;;;;;;6195729;23;20018;-95
2023/03/19 05:27:25;;;;;;;10.13;6.03;;;;;;;;;;6247211;23;20000;-94
2023/03/19 05:29:52;;;;;;;10.35;6.20;;;;;;;;;;6220164;23;20334;-95
2023/03/19 05:32:20;;;;;;;9.95;5.93;;;;;;;;;;6195821;23;20004;-93
2023/03/19 05:34:46;;;;;;;10.02;6.10;;;;;;;;;;6221878;22;20023;-93
2023/03/19 05:37:16;;;;;;;11.50;6.35;;;;;;;;;;6218976;23;20366;-93
2023/03/19 05:39:42;;;;;;;11.85;6.93;;;;;;;;;;6195992;23;20434;-94
2023/03/19 05:42:15;;;;;;;12.75;7.50;;;;;;;;;;6221344;23;20091;-94
2023/03/19 05:44:41;;;;;;;15.43;6.85;;;;;;;;;;6220665;23;20024;-94
2023/03/19 05:47:08;;;;;;;11.02;6.55;;;;;;;;;;6196480;23;20004;-94
2023/03/19 05:49:34;;;;;;;14.25;6.57;;;;;;;;;;6220189;23;20004;-95
2023/03/19 05:52:00;;;;;;;13.60;6.82;;;;;;;;;;6196844;23;20062;-94
2023/03/19 05:54:27;;;;;;;12.90;6.63;;;;;;;;;;6195925;23;20078;-93
2023/03/19 05:56:54;;;;;;;10.73;5.65;;;;;;;;;;6219899;23;20450;-93
2023/03/19 05:59:20;;;;;;;10.05;6.40;;;;;;;;;;6221368;22;20462;-94
2023/03/19 06:01:49;;;;;;;12.82;6.32;;;;;;;;;;6195882;23;20012;-94
2023/03/19 06:04:15;;;;;;;10.45;6.28;;;;;;;;;;6199056;23;20466;-95
2023/03/19 06:06:46;;;;;;;15.13;7.50;;;;;;;;;;6196088;23;20402;-94
2023/03/19 06:09:21;;;;;;;12.10;6.63;;;;;;;;;;6198779;23;20063;-95
2023/03/19 06:12:02;;;;;;;9.27;5.75;;;;;;;;;;6250589;23;20022;-95
2023/03/19 06:14:29;;;;;;;11.55;6.78;;;;;;;;;;6197933;23;20331;-93
2023/03/19 06:16:55;;;;;;;15.55;7.60;;;;;;;;;;6222328;23;20016;-92
2023/03/19 06:19:21;;;;;;;18.30;9.15;;;;;;;;;;6197143;23;20015;-95
2023/03/19 06:21:47;;;;;;;22.48;9.73;;;;;;;;;;6196132;23;20477;-95
2023/03/19 06:24:14;;;;;;;16.13;8.95;;;;;;;;;;6195511;23;20089;-94
2023/03/19 06:26:40;;;;;;;24.00;10.50;;;;;;;;;;6221844;23;20231;-94
2023/03/19 06:29:10;;;;;;;19.65;9.13;;;;;;;;;;6221391;23;20654;-94
2023/03/19 06:31:46;;;;;;;22.80;11.98;;;;;;;;;;6249613;23;20004;-94
2023/03/19 06:34:27;;;;;;;15.02;8.40;;;;;;;;;;6226435;22;20430;-95
2023/03/19 06:36:53;;;;;;;18.65;9.57;;;;;;;;;;6199478;23;20438;-95
2023/03/19 06:39:27;;;;;;;13.25;8.00;;;;;;;;;;6225103;23;20004;-95
2023/03/19 06:41:53;;;;;;;14.27;7.60;;;;;;;;;;6226019;23;20030;-93
2023/03/19 06:44:19;;;;;;;12.82;7.38;;;;;;;;;;6195572;23;20012;-93
2023/03/19 06:46:45;;;;;;;13.50;6.70;;;;;;;;;;6221874;23;20004;-93
2023/03/19 06:49:12;;;;;;;16.20;7.55;;;;;;;;;;6197789;23;20005;-93
2023/03/19 06:51:43;;;;;;;11.90;6.78;;;;;;;;;;6198086;23;20028;-94
2023/03/19 06:54:10;;;;;;;18.42;6.97;;;;;;;;;;6198264;23;20042;-94
2023/03/19 06:56:36;;;;;;;13.52;7.95;;;;;;;;;;6196478;23;20019;-95
2023/03/19 06:59:12;;;;;;;14.02;7.88;;;;;;;;;;6197471;23;20099;-94
2023/03/19 07:01:42;;;;;;;19.60;11.18;;;;;;;;;;6224028;23;20012;-94
2023/03/19 07:04:10;;;;;;;23.90;12.38;;;;;;;;;;6225107;23;20008;-94
2023/03/19 07:06:36;;;;;;;18.27;9.75;;;;;;;;;;6222247;23;20095;-94
2023/03/19 07:09:02;;;;;;;13.68;7.22;;;;;;;;;;6200469;23;20014;-94
2023/03/19 07:11:29;;;;;;;11.23;6.97;;;;;;;;;;6197418;23;20441;-94
2023/03/19 07:13:55;;;;;;;12.38;6.38;;;;;;;;;;6224046;23;20590;-95
2023/03/19 07:27:24;;;;;;;8.95;5.40;;;;;;;;;;5907483;21;10971377;-93
2023/03/19 07:29:50;;;;;;;9.32;5.78;;;;;;;;;;6354224;22;20010;-92
2023/03/19 07:32:17;;;;;;;8.43;5.45;;;;;;;;;;6352279;22;20025;-92
2023/03/19 07:34:44;;;;;;;11.32;5.55;;;;;;;;;;6325014;22;20502;-92
2023/03/19 07:37:10;;;;;;;11.25;5.10;;;;;;;;;;6325800;22;20002;-94
2023/03/19 07:39:36;;;;;;;17.63;7.32;;;;;;;;;;6326141;22;20081;-93
2023/03/19 07:42:27;;;;;;;16.38;8.50;;;;;;;;;;6326017;22;20006;-93
2023/03/19 07:44:53;;;;;;;12.57;8.18;;;;;;;;;;6193726;23;20443;-93
2023/03/19 07:47:20;;;;;;;18.75;8.80;;;;;;;;;;6306888;22;20430;-93
2023/03/19 07:49:46;;;;;;;12.73;8.27;;;;;;;;;;6324226;22;20014;-93
2023/03/19 07:52:13;;;;;;;13.77;7.95;;;;;;;;;;6323707;22;20031;-93
2023/03/19 07:54:42;;;;;;;14.65;6.95;;;;;;;;;;6376156;22;20085;-90
2023/03/19 07:57:21;;;;;;;;;;;;;;;;;;;;;
2023/03/19 07:59:47;;;;;;;14.80;8.88;;;;;;;;;;6355116;22;20094;-93
2023/03/19 08:02:14;;;;;;;15.35;8.23;;;;;;;;;;6327118;22;20413;-92
2023/03/19 08:04:41;;;;;;;14.05;8.52;;;;;;;;;;6325009;22;20010;-93
2023/03/19 08:07:11;;;;;;;13.43;7.50;;;;;;;;;;6327184;22;20500;-92
2023/03/19 08:13:02;;;;;;;16.75;9.25;;;;;;;;;;6203151;23;20796;-92
2023/03/19 08:15:28;;;;;;;18.30;9.27;;;;;;;;;;6134341;23;20068;-93
2023/03/19 08:18:02;;;;;;;14.95;8.85;;;;;;;;;;6322525;22;20191;-92
2023/03/19 08:20:28;;;;;;;13.48;7.40;;;;;;;;;;6352162;22;20006;-92
2023/03/19 08:22:56;;;;;;;14.65;8.27;;;;;;;;;;6323683;22;20010;-92
2023/03/19 08:25:22;;;;;;;15.10;8.98;;;;;;;;;;6365436;22;20013;-96
2023/03/19 08:28:04;;;;;;;16.02;9.32;;;;;;;;;;6387492;22;20041;-96
2023/03/19 08:30:39;;;;;;;;;;;;;;;;;;6358364;22;20007;-96
2023/03/19 08:33:07;;;;;;;20.85;9.18;;;;;;;;;;6359949;22;19957;-96
2023/03/19 08:35:38;;;;;;;18.45;10.32;;;;;;;;;;6360866;22;20033;-96
2023/03/19 08:38:07;;;;;;;16.77;9.88;;;;;;;;;;6358769;22;20003;-96
2023/03/19 08:40:39;;;;;;;11.25;7.32;;;;;;;;;;6356842;22;20002;-96
2023/03/19 08:43:06;;;;;;;20.75;11.45;;;;;;;;;;6331163;22;20010;-96
2023/03/19 08:45:37;;;;;;;21.55;10.68;;;;;;;;;;6357901;22;20006;-96
2023/03/19 08:48:07;;;;;;;17.52;10.85;;;;;;;;;;6358739;22;20038;-96
2023/03/19 08:50:39;;;;;;;17.13;9.55;;;;;;;;;;6331996;22;20010;-96
2023/03/19 08:53:09;;;;;;;22.38;12.13;;;;;;;;;;6356283;22;20025;-96
2023/03/19 08:55:38;;;;;;;16.08;9.88;;;;;;;;;;6330437;22;20043;-96
2023/03/19 08:58:04;;;;;;;18.00;9.88;;;;;;;;;;6331594;22;20558;-96
2023/03/19 09:00:34;;;;;;;15.48;9.20;;;;;;;;;;6332420;22;20078;-96
2023/03/19 09:03:05;;;;;;;12.30;6.22;;;;;;;;;;6359980;22;19998;-96
2023/03/19 09:05:31;;;;;;;17.10;9.82;;;;;;;;;;6356081;22;20066;-96
2023/03/19 09:07:57;;;;;;;17.38;9.45;;;;;;;;;;6346373;22;20029;-92
2023/03/19 09:10:23;;;;;;;13.82;8.40;;;;;;;;;;6315233;22;20492;-92
2023/03/19 09:12:51;;;;;;;17.83;9.00;;;;;;;;;;6316019;22;20078;-93
2023/03/19 09:15:17;;;;;;;17.40;10.02;;;;;;;;;;6344607;22;20029;-92
2023/03/19 09:17:46;;;;;;;18.27;9.32;;;;;;;;;;6322171;22;20056;-92
2023/03/19 09:20:13;;;;;;;16.95;9.18;;;;;;;;;;6341825;22;20009;-93
2023/03/19 09:22:40;;;;;;;18.05;10.27;;;;;;;;;;6315488;22;20010;-92
2023/03/19 09:25:07;;;;;;;20.75;11.43;;;;;;;;;;6340618;22;20010;-92
2023/03/19 09:27:33;;;;;;;16.25;9.95;;;;;;;;;;6341048;22;20391;-91
2023/03/19 09:30:00;;;;;;;22.60;10.18;;;;;;;;;;6316955;22;20014;-92
2023/03/19 09:32:26;;;;;;;20.83;10.00;;;;;;;;;;6316783;22;20014;-92
2023/03/19 09:34:56;;;;;;;17.98;11.27;;;;;;;;;;6340459;22;20078;-91
2023/03/19 09:37:22;;;;;;;18.33;9.88;;;;;;;;;;6342977;22;20002;-93
2023/03/19 09:39:50;;;;;;;17.38;8.88;;;;;;;;;;6342293;22;20419;-93
2023/03/19 09:42:39;;;;;;;16.48;9.73;;;;;;;;;;6315950;22;20449;-93
2023/03/19 09:45:11;;;;;;;15.35;9.38;;;;;;;;;;6341684;22;20006;-93
2023/03/19 09:47:38;;;;;;;15.38;9.38;;;;;;;;;;6344867;22;20034;-93
2023/03/19 09:50:15;;;;;;;14.45;7.78;;;;;;;;;;6316917;22;20440;-92
2023/03/19 09:52:44;;;;;;;15.63;8.60;;;;;;;;;;6341803;22;20111;-93
2023/03/19 09:55:18;;;;;;;14.48;9.30;;;;;;;;;;6344398;22;20002;-92
2023/03/19 09:57:45;;;;;;;13.32;8.32;;;;;;;;;;6341998;22;20056;-92
2023/03/19 10:00:14;;;;;;;17.75;8.93;;;;;;;;;;6316914;22;20151;-93
2023/03/19 10:02:42;;;;;;;12.68;7.75;;;;;;;;;;6370953;22;20467;-91
2023/03/19 10:05:27;;;;;;;15.65;8.55;;;;;;;;;;6344371;22;20448;-93
2023/03/19 10:08:23;;;;;;;;;;;;;;;;;;;;;
2023/03/19 10:11:07;;;;;;;13.65;7.38;;;;;;;;;;6375774;22;20030;-92
2023/03/19 10:13:38;;;;;;;15.95;7.57;;;;;;;;;;6345387;22;20458;-93
2023/03/19 10:16:12;;;;;;;15.43;8.13;;;;;;;;;;6347492;22;20055;-92
2023/03/19 10:18:43;;;;;;;12.07;6.57;;;;;;;;;;6350352;22;20404;-93
2023/03/19 10:21:19;;;;;;;12.73;8.20;;;;;;;;;;6348657;22;20013;-94
2023/03/19 10:23:57;;;;;;;15.10;8.30;;;;;;;;;;6378955;22;20010;-93
2023/03/19 10:26:28;;;;;;;16.30;8.52;;;;;;;;;;6351640;22;20394;-93
2023/03/19 10:29:04;;;;;;;12.10;7.88;;;;;;;;;;6353388;22;20006;-94
2023/03/19 10:31:46;;;;;;;12.98;7.28;;;;;;;;;;6345068;22;20006;-93
2023/03/19 10:34:16;;;;;;;12.05;7.93;;;;;;;;;;6347797;22;20006;-93
2023/03/19 10:36:42;;;;;;;15.20;7.82;;;;;;;;;;6349150;22;20081;-93
2023/03/19 10:39:13;;;;;;;12.07;7.35;;;;;;;;;;6318741;22;20002;-94
2023/03/19 10:41:39;;;;;;;12.35;7.78;;;;;;;;;;6322754;22;20010;-93
2023/03/19 10:44:33;;;;;;;13.18;7.75;;;;;;;;;;6348648;22;20010;-94
2023/03/19 10:47:10;;;;;;;13.60;8.23;;;;;;;;;;6288927;22;20021;-93
2023/03/19 10:49:39;;;;;;;19.15;8.93;;;;;;;;;;6345706;22;20006;-94
2023/03/19 10:52:18;;;;;;;11.57;7.65;;;;;;;;;;6320499;22;20014;-93
2023/03/19 10:54:45;;;;;;;11.90;5.85;;;;;;;;;;6344579;22;20317;-92
2023/03/19 10:57:21;;;;;;;16.73;7.65;;;;;;;;;;6318164;22;20034;-93
2023/03/19 10:59:50;;;;;;;14.07;7.95;;;;;;;;;;6348683;22;20007;-93
2023/03/19 11:02:19;;;;;;;17.40;8.02;;;;;;;;;;6327832;22;20068;-93
2023/03/19 11:05:15;;;;;;;;;;;;;;;;;;;;;
2023/03/19 11:07:44;;;;;;;13.93;7.45;;;;;;;;;;6373691;22;20037;-93
2023/03/19 11:10:15;;;;;;;11.63;7.35;;;;;;;;;;6345518;22;20157;-93
2023/03/19 11:12:47;;;;;;;11.13;6.10;;;;;;;;;;6324319;22;20006;-93
2023/03/19 11:15:23;;;;;;;12.98;6.82;;;;;;;;;;6354698;22;20010;-93
2023/03/19 11:17:50;;;;;;;;;;;;;;;;;;6329539;22;20267;-92
2023/03/19 11:20:16;;;;;;;;;;;;;;;;;;6349417;22;20315;-93
2023/03/19 11:22:42;;;;;;;14.32;7.45;;;;;;;;;;6348892;22;19905;-93
2023/03/19 11:25:20;;;;;;;13.80;8.50;;;;;;;;;;6321923;22;20018;-92
2023/03/19 11:28:03;;;;;;;16.50;8.60;;;;;;;;;;6348888;22;20022;-92
2023/03/19 11:30:56;;;;;;;16.40;8.77;;;;;;;;;;6347730;22;20070;-92
2023/03/19 11:33:37;;;;;;;15.20;8.90;;;;;;;;;;6367751;22;20008;-93
2023/03/19 11:36:20;;;;;;;17.15;9.95;;;;;;;;;;6345149;22;20079;-92
2023/03/19 11:39:10;;;;;;;16.98;10.10;;;;;;;;;;6344062;22;20501;-92
2023/03/19 11:41:36;;;;;;;18.30;9.32;;;;;;;;;;6346873;22;20002;-95
2023/03/19 11:44:07;;;;;;;16.02;9.25;;;;;;;;;;6343900;22;20002;-93
2023/03/19 11:46:54;;;;;;;16.00;8.45;;;;;;;;;;6379554;22;20589;-94
2023/03/19 11:49:31;;;;;;;15.38;9.35;;;;;;;;;;6349899;22;20002;-92
2023/03/19 11:52:00;;;;;;;14.45;9.05;;;;;;;;;;6373303;22;20116;-93
2023/03/19 11:54:47;;;;;;;18.00;10.30;;;;;;;;;;6344008;22;20071;-93
2023/03/19 11:57:42;;;;;;;12.98;9.23;;;;;;;;;;6343307;22;20021;-92
2023/03/19 12:00:09;;;;;;;13.80;8.38;;;;;;;;;;6290040;22;19998;-93
2023/03/19 12:02:43;;;;;;;14.15;8.93;;;;;;;;;;6353069;22;19998;-93
2023/03/19 12:05:28;;;;;;;14.88;8.85;;;;;;;;;;6353445;22;20014;-92
2023/03/19 12:08:16;;;;;;;14.07;9.57;;;;;;;;;;6380728;22;20006;-93
2023/03/19 12:13:59;;;;;;;15.07;9.10;;;;;;;;;;6354264;22;20090;-93
2023/03/19 12:16:32;;;;;;;17.27;8.02;;;;;;;;;;6356350;22;20025;-93
2023/03/19 12:19:19;;;;;;;18.25;9.20;;;;;;;;;;6354146;22;20399;-93
2023/03/19 12:22:13;;;;;;;16.23;8.80;;;;;;;;;;6357496;22;20018;-92
2023/03/19 12:24:51;;;;;;;17.00;9.13;;;;;;;;;;6355519;22;19998;-95
2023/03/19 12:30:24;;;;;;;18.35;9.45;;;;;;;;;;6383360;22;20032;-93
2023/03/19 12:33:12;;;;;;;23.25;10.80;;;;;;;;;;6356807;22;20002;-92
2023/03/19 12:35:42;;;;;;;15.25;8.88;;;;;;;;;;6354008;22;20428;-93
2023/03/19 12:38:28;;;;;;;19.15;9.30;;;;;;;;;;6355262;22;20002;-93
2023/03/19 12:41:18;;;;;;;15.77;9.05;;;;;;;;;;6381290;22;20045;-93
2023/03/19 12:44:06;;;;;;;18.75;9.60;;;;;;;;;;6354366;22;20009;-93
2023/03/19 12:46:40;;;;;;;17.13;9.77;;;;;;;;;;6355500;22;19990;-93
2023/03/19 12:49:14;;;;;;;16.95;9.30;;;;;;;;;;6354953;22;20030;-92
2023/03/19 12:51:55;;;;;;;;;;;;;;;;;;;;;
2023/03/19 12:57:49;;;;;;;18.60;10.85;;;;;;;;;;6366961;22;20070;-93
2023/03/19 13:00:33;;;;;;;17.52;8.75;;;;;;;;;;6358056;22;19999;-94
2023/03/19 13:03:20;;;;;;;24.77;12.45;;;;;;;;;;6361877;22;20089;-92
2023/03/19 13:06:28;;;;;;;27.13;12.57;;;;;;;;;;6361267;22;20011;-94
2023/03/19 13:09:16;;;;;;;23.52;12.80;;;;;;;;;;6282456;22;20002;-93
2023/03/19 13:11:54;;;;;;;22.02;10.52;;;;;;;;;;6350357;22;20010;-92
2023/03/19 13:14:49;;;;;;;23.15;12.20;;;;;;;;;;6348235;22;20062;-93
2023/03/19 13:17:40;;;;;;;24.20;13.32;;;;;;;;;;6346576;22;20014;-93
2023/03/19 13:20:23;;;;;;;26.40;13.38;;;;;;;;;;6194383;23;20012;-93
2023/03/19 13:22:53;;;;;;;23.17;11.88;;;;;;;;;;6348942;22;20014;-93
2023/03/19 13:25:22;;;;;;;23.38;12.13;;;;;;;;;;6347932;22;20339;-94
2023/03/19 13:27:59;;;;;;;24.65;12.07;;;;;;;;;;6347723;22;20021;-94
2023/03/19 13:30:26;;;;;;;28.85;12.45;;;;;;;;;;6372317;22;20074;-93
2023/03/19 13:33:09;;;;;;;23.40;11.73;;;;;;;;;;6319604;22;20016;-93
2023/03/19 13:35:39;;;;;;;24.20;11.68;;;;;;;;;;6346918;22;20398;-94
2023/03/19 13:38:08;;;;;;;31.20;14.82;;;;;;;;;;6346423;22;20006;-93
2023/03/19 13:40:38;;;;;;;35.28;15.55;;;;;;;;;;6346531;22;20003;-95
2023/03/19 13:43:21;;;;;;;29.40;15.38;;;;;;;;;;6345554;22;20014;-94
2023/03/19 13:45:52;;;;;;;29.70;15.00;;;;;;;;;;6320627;22;20358;-93
2023/03/19 13:48:27;;;;;;;36.72;15.73;;;;;;;;;;6348437;22;20006;-93
2023/03/19 13:51:26;;;;;;;33.17;14.90;;;;;;;;;;6346668;22;20029;-95
2023/03/19 13:53:52;;;;;;;35.17;14.52;;;;;;;;;;6262713;22;20007;-94
2023/03/19 13:56:21;;;;;;;35.72;15.73;;;;;;;;;;6352474;22;20006;-94
2023/03/19 13:59:13;;;;;;;33.40;15.82;;;;;;;;;;6333108;22;20377;-93
2023/03/19 14:01:43;;;;;;;36.38;14.85;;;;;;;;;;6346898;22;20007;-92
2023/03/19 14:04:23;;;;;;;30.17;14.60;;;;;;;;;;6384027;22;20013;-92
2023/03/19 14:06:55;;;;;;;34.45;14.98;;;;;;;;;;6346057;22;20010;-92
2023/03/19 14:09:42;;;;;;;37.33;16.55;;;;;;;;;;6343494;22;20009;-93
2023/03/19 14:12:15;;;;;;;35.03;17.75;;;;;;;;;;6345074;22;20053;-93
2023/03/19 14:15:00;;;;;;;35.15;14.48;;;;;;;;;;6343681;22;20014;-92
2023/03/19 14:17:30;;;;;;;38.67;16.10;;;;;;;;;;6344903;22;20370;-93
2023/03/19 14:20:00;;;;;;;41.15;17.05;;;;;;;;;;6345023;22;20010;-93
2023/03/19 14:22:55;;;;;;;35.38;15.55;;;;;;;;;;6346299;22;20006;-94
2023/03/19 14:25:47;;;;;;;38.45;16.35;;;;;;;;;;6333316;22;20013;-94
2023/03/19 14:28:17;;;;;;;35.85;14.45;;;;;;;;;;6349442;22;20037;-94
2023/03/19 14:30:45;;;;;;;33.55;14.00;;;;;;;;;;6345796;22;20083;-93
2023/03/19 14:33:32;;;;;;;33.45;13.90;;;;;;;;;;6347733;22;20006;-93
2023/03/19 14:36:02;;;;;;;39.30;15.50;;;;;;;;;;6320173;22;20002;-93
2023/03/19 14:38:49;;;;;;;38.78;15.10;;;;;;;;;;6346168;22;20006;-94
2023/03/19 14:41:17;;;;;;;34.03;12.45;;;;;;;;;;6345179;22;20144;-93
2023/03/19 14:43:56;;;;;;;39.28;15.27;;;;;;;;;;6346148;22;20005;-93
2023/03/19 14:46:26;;;;;;;36.67;15.07;;;;;;;;;;6344791;22;20029;-92
2023/03/19 14:49:04;;;;;;;39.42;14.82;;;;;;;;;;6347416;22;20006;-93
2023/03/19 14:51:49;;;;;;;31.67;13.77;;;;;;;;;;6353216;22;20094;-93
2023/03/19 14:54:21;;;;;;;32.72;13.55;;;;;;;;;;6356116;22;20030;-93
2023/03/19 14:56:47;;;;;;;22.60;9.70;;;;;;;;;;6351568;22;20006;-93
2023/03/19 14:59:14;;;;;;;26.75;10.82;;;;;;;;;;6355644;22;19998;-93
2023/03/19 15:01:49;;;;;;;31.27;11.95;;;;;;;;;;6328488;22;20018;-94
2023/03/19 15:04:24;;;;;;;30.10;11.98;;;;;;;;;;6382566;22;20006;-92
2023/03/19 15:06:54;;;;;;;27.25;10.85;;;;;;;;;;6352868;22;20379;-92
2023/03/19 15:09:30;;;;;;;27.77;11.30;;;;;;;;;;6351287;22;20013;-93
2023/03/19 15:12:08;;;;;;;30.75;11.32;;;;;;;;;;6354886;22;20066;-93
2023/03/19 15:14:57;;;;;;;33.75;13.52;;;;;;;;;;6352798;22;20006;-94
2023/03/19 15:17:24;;;;;;;31.73;12.30;;;;;;;;;;6352418;22;20081;-92